createdAt,value
2022-08-08T00:02:03.463Z,16.20
2022-08-08T00:04:49.498Z,16.20
2022-08-08T00:08:01.665Z,16.20
2022-08-08T00:10:58.085Z,16.10
2022-08-08T00:14:15.879Z,16.10
2022-08-08T00:17:23.469Z,16.00
2022-08-08T00:20:18.316Z,16.00
2022-08-08T00:23:14.875Z,16.00
2022-08-08T00:26:06.539Z,16.00
2022-08-08T00:29:08.195Z,16.00
2022-08-08T00:32:20.678Z,16.00
2022-08-08T00:35:23.265Z,16.00
2022-08-08T00:38:51.493Z,16.00
2022-08-08T00:42:08.278Z,16.00
2022-08-08T00:45:29.349Z,15.90
2022-08-08T00:48:59.359Z,15.90
2022-08-08T00:52:19.837Z,15.90
2022-08-08T00:55:54.787Z,15.90
2022-08-08T00:59:44.722Z,15.80
2022-08-08T01:04:01.662Z,15.80
2022-08-08T01:06:47.598Z,15.70
2022-08-08T01:10:12.379Z,15.60
2022-08-08T01:13:45.952Z,15.60
2022-08-08T01:17:05.717Z,15.50
2022-08-08T01:20:29.600Z,15.50
2022-08-08T01:24:05.747Z,15.40
2022-08-08T01:27:21.247Z,15.40
2022-08-08T01:30:53.788Z,15.30
2022-08-08T01:34:28.775Z,15.30
2022-08-08T01:38:04.742Z,15.20
2022-08-08T01:41:03.317Z,15.20
2022-08-08T01:44:05.165Z,15.20
2022-08-08T01:47:06.082Z,15.10
2022-08-08T01:50:26.289Z,15.00
2022-08-08T01:55:17.414Z,14.90
2022-08-08T01:56:54.177Z,14.90
2022-08-08T02:00:13.141Z,14.80
2022-08-08T02:03:56.211Z,14.80
2022-08-08T02:07:00.968Z,14.80
2022-08-08T02:10:11.883Z,14.70
2022-08-08T02:13:04.715Z,14.70
2022-08-08T02:16:04.487Z,14.60
2022-08-08T02:19:26.995Z,14.60
2022-08-08T02:22:46.031Z,14.60
2022-08-08T02:25:52.863Z,14.60
2022-08-08T02:29:00.449Z,14.60
2022-08-08T02:32:08.501Z,14.60
2022-08-08T02:35:18.306Z,14.60
2022-08-08T02:38:56.093Z,14.50
2022-08-08T02:42:12.273Z,14.50
2022-08-08T02:45:51.530Z,14.50
2022-08-08T02:49:27.675Z,14.50
2022-08-08T02:53:01.417Z,14.40
2022-08-08T02:56:41.911Z,14.40
2022-08-08T03:00:31.812Z,14.30
2022-08-08T03:05:03.479Z,14.30
2022-08-08T03:08:16.081Z,14.30
2022-08-08T03:12:02.414Z,14.40
2022-08-08T03:15:58.954Z,14.30
2022-08-08T03:18:39.780Z,14.30
2022-08-08T03:21:40.760Z,14.20
2022-08-08T03:24:38.453Z,14.20
2022-08-08T03:27:41.946Z,14.20
2022-08-08T03:30:32.220Z,14.20
2022-08-08T03:33:55.283Z,14.10
2022-08-08T03:36:31.628Z,14.10
2022-08-08T03:39:22.201Z,14.10
2022-08-08T03:42:38.539Z,14.10
2022-08-08T03:46:06.212Z,14.10
2022-08-08T03:49:09.547Z,14.00
2022-08-08T03:51:51.423Z,14.00
2022-08-08T03:55:02.338Z,13.90
2022-08-08T03:58:31.181Z,14.00
2022-08-08T04:01:01.946Z,13.90
2022-08-08T04:04:10.517Z,14.00
2022-08-08T04:07:01.357Z,13.90
2022-08-08T04:10:02.902Z,13.90
2022-08-08T04:12:55.888Z,13.90
2022-08-08T04:15:55.088Z,13.80
2022-08-08T04:18:53.041Z,13.80
2022-08-08T04:21:45.761Z,13.90
2022-08-08T04:24:34.655Z,13.90
2022-08-08T04:28:03.463Z,13.90
2022-08-08T04:30:36.643Z,14.00
2022-08-08T04:33:38.523Z,14.00
2022-08-08T04:36:31.079Z,14.00
2022-08-08T04:40:03.735Z,14.10
2022-08-08T04:42:33.838Z,14.10
2022-08-08T04:45:22.615Z,14.10
2022-08-08T04:48:12.724Z,14.10
2022-08-08T04:51:03.872Z,14.20
2022-08-08T04:54:38.607Z,14.20
2022-08-08T04:57:01.869Z,14.30
2022-08-08T04:59:50.632Z,14.30
2022-08-08T05:02:42.287Z,14.30
2022-08-08T05:05:44.672Z,14.40
2022-08-08T05:08:34.232Z,14.40
2022-08-08T05:11:26.148Z,14.50
2022-08-08T05:14:15.147Z,14.50
2022-08-08T05:17:09.088Z,14.50
2022-08-08T05:20:11.423Z,14.50
2022-08-08T05:23:04.602Z,14.50
2022-08-08T05:25:57.266Z,14.60
2022-08-08T05:28:57.400Z,14.60
2022-08-08T05:32:05.589Z,14.70
2022-08-08T05:34:59.582Z,14.70
2022-08-08T05:37:56.077Z,14.80
2022-08-08T05:40:55.799Z,14.90
2022-08-08T05:44:03.611Z,15.00
2022-08-08T05:46:54.729Z,15.10
2022-08-08T05:49:55.819Z,15.20
2022-08-08T05:52:44.981Z,15.40
2022-08-08T05:56:09.737Z,15.50
2022-08-08T05:58:56.744Z,15.70
2022-08-08T06:01:57.324Z,15.90
2022-08-08T06:04:54.572Z,16.00
2022-08-08T06:07:46.079Z,16.20
2022-08-08T06:10:39.174Z,16.30
2022-08-08T06:13:35.664Z,16.30
2022-08-08T06:16:30.568Z,16.40
2022-08-08T06:19:23.938Z,16.50
2022-08-08T06:25:58.886Z,16.80
2022-08-08T06:28:32.695Z,17.00
2022-08-08T06:31:32.291Z,17.10
2022-08-08T06:34:39.973Z,17.30
2022-08-08T06:37:37.286Z,17.40
2022-08-08T06:40:32.148Z,17.60
2022-08-08T06:43:28.833Z,17.60
2022-08-08T06:46:23.762Z,17.70
2022-08-08T06:49:13.487Z,17.80
2022-08-08T06:52:05.454Z,17.90
2022-08-08T06:54:55.402Z,18.00
2022-08-08T06:57:54.184Z,18.10
2022-08-08T07:00:50.445Z,18.10
2022-08-08T07:03:52.081Z,18.20
2022-08-08T07:07:10.636Z,18.20
2022-08-08T07:10:08.287Z,18.30
2022-08-08T07:13:07.148Z,18.30
2022-08-08T07:16:10.393Z,18.40
2022-08-08T07:19:12.851Z,18.60
2022-08-08T07:22:18.432Z,18.70
2022-08-08T07:25:14.462Z,18.80
2022-08-08T07:28:13.229Z,18.80
2022-08-08T07:31:10.128Z,18.80
2022-08-08T07:34:00.421Z,18.90
2022-08-08T07:36:52.304Z,19.20
2022-08-08T07:39:45.659Z,19.30
2022-08-08T07:42:47.022Z,19.50
2022-08-08T07:46:05.171Z,19.60
2022-08-08T07:48:46.321Z,19.80
2022-08-08T07:51:45.141Z,19.80
2022-08-08T07:54:50.140Z,19.90
2022-08-08T07:57:48.235Z,19.90
2022-08-08T08:00:52.427Z,20.10
2022-08-08T08:03:47.060Z,20.10
2022-08-08T08:06:38.608Z,20.10
2022-08-08T08:09:39.234Z,20.40
2022-08-08T08:12:35.309Z,20.50
2022-08-08T08:15:32.144Z,20.50
2022-08-08T08:18:27.384Z,20.70
2022-08-08T08:21:44.312Z,20.70
2022-08-08T08:24:32.529Z,20.80
2022-08-08T08:27:24.623Z,21.10
2022-08-08T08:30:19.265Z,21.30
2022-08-08T08:33:11.103Z,21.40
2022-08-08T08:36:20.374Z,21.40
2022-08-08T08:39:17.318Z,21.30
2022-08-08T08:42:13.255Z,21.20
2022-08-08T08:45:21.203Z,21.40
2022-08-08T08:48:16.296Z,21.60
2022-08-08T08:51:14.447Z,21.70
2022-08-08T08:54:04.339Z,21.80
2022-08-08T08:56:53.974Z,21.80
2022-08-08T08:59:59.638Z,21.90
2022-08-08T09:02:54.067Z,21.90
2022-08-08T09:05:53.780Z,21.80
2022-08-08T09:08:49.786Z,21.90
2022-08-08T09:11:47.639Z,22.00
2022-08-08T09:14:52.677Z,22.00
2022-08-08T09:17:55.687Z,22.00
2022-08-08T09:22:00.707Z,22.20
2022-08-08T09:23:56.998Z,22.40
2022-08-08T09:26:52.712Z,22.60
2022-08-08T09:29:52.935Z,22.90
2022-08-08T09:33:11.969Z,23.10
2022-08-08T09:35:57.554Z,23.30
2022-08-08T09:38:56.232Z,23.10
2022-08-08T09:42:19.914Z,23.10
2022-08-08T09:45:15.543Z,23.00
2022-08-08T09:48:21.053Z,23.00
2022-08-08T09:51:10.846Z,23.00
2022-08-08T09:54:15.369Z,23.20
2022-08-08T10:00:53.674Z,23.30
2022-08-08T10:03:56.140Z,23.30
2022-08-08T10:06:57.156Z,23.20
2022-08-08T10:10:00.322Z,23.10
2022-08-08T10:13:14.287Z,23.20
2022-08-08T10:16:05.646Z,23.30
2022-08-08T10:19:06.255Z,23.70
2022-08-08T10:22:35.890Z,24.00
2022-08-08T10:26:31.040Z,24.40
2022-08-08T10:29:58.789Z,24.60
2022-08-08T10:33:05.928Z,24.30
2022-08-08T10:36:09.290Z,24.10
2022-08-08T10:39:13.988Z,24.20
2022-08-08T10:42:14.664Z,24.10
2022-08-08T10:45:09.663Z,24.10
2022-08-08T10:47:59.843Z,24.00
2022-08-08T10:50:49.065Z,23.90
2022-08-08T10:57:49.500Z,23.80
2022-08-08T11:01:02.293Z,23.80
2022-08-08T11:04:04.963Z,23.80
2022-08-08T11:07:03.509Z,24.00
2022-08-08T11:09:54.965Z,24.10
2022-08-08T11:13:12.185Z,24.20
2022-08-08T11:16:07.779Z,24.30
2022-08-08T11:19:01.266Z,24.20
2022-08-08T11:21:55.728Z,24.10
2022-08-08T11:24:48.066Z,24.00
2022-08-08T11:27:38.995Z,24.00
2022-08-08T11:30:34.959Z,24.00
2022-08-08T11:33:51.780Z,23.90
2022-08-08T11:36:39.534Z,23.90
2022-08-08T11:39:36.783Z,24.00
2022-08-08T11:42:30.881Z,24.30
2022-08-08T11:45:23.640Z,24.50
2022-08-08T11:48:20.256Z,24.50
2022-08-08T11:51:38.333Z,24.40
2022-08-08T11:54:32.167Z,24.50
2022-08-08T11:57:27.993Z,24.50
2022-08-08T12:00:29.457Z,24.60
2022-08-08T12:03:25.147Z,24.60
2022-08-08T12:06:22.332Z,24.80
2022-08-08T12:09:17.139Z,25.00
2022-08-08T12:12:08.243Z,25.10
2022-08-08T12:15:05.173Z,25.00
2022-08-08T12:17:54.070Z,25.10
2022-08-08T12:20:44.651Z,25.30
2022-08-08T12:23:42.792Z,25.70
2022-08-08T12:26:41.794Z,26.30
2022-08-08T12:29:42.521Z,26.90
2022-08-08T12:32:44.118Z,26.90
2022-08-08T12:35:41.327Z,26.70
2022-08-08T12:38:55.626Z,26.70
2022-08-08T12:42:01.269Z,27.00
2022-08-08T12:44:50.700Z,27.30
2022-08-08T12:48:04.931Z,27.50
2022-08-08T12:50:50.039Z,27.10
2022-08-08T12:54:04.526Z,26.50
2022-08-08T12:57:17.127Z,26.30
2022-08-08T13:00:11.366Z,26.20
2022-08-08T13:03:04.558Z,26.40
2022-08-08T13:06:13.182Z,26.50
2022-08-08T13:09:10.402Z,27.00
2022-08-08T13:12:19.628Z,27.50
2022-08-08T13:15:10.512Z,27.50
2022-08-08T13:18:11.532Z,27.20
2022-08-08T13:24:08.740Z,26.60
2022-08-08T13:27:11.781Z,26.50
2022-08-08T13:30:02.761Z,26.60
2022-08-08T13:32:56.675Z,26.70
2022-08-08T13:35:50.102Z,26.80
2022-08-08T13:38:40.207Z,27.20
2022-08-08T13:41:38.890Z,27.60
2022-08-08T13:44:30.396Z,27.80
2022-08-08T13:47:20.202Z,27.60
2022-08-08T13:50:34.714Z,27.30
2022-08-08T13:53:28.154Z,27.40
2022-08-08T13:56:44.871Z,27.30
2022-08-08T13:59:48.436Z,27.20
2022-08-08T14:02:41.119Z,27.10
2022-08-08T14:05:34.289Z,27.10
2022-08-08T14:08:29.938Z,27.10
2022-08-08T14:11:25.448Z,27.20
2022-08-08T14:14:20.979Z,27.20
2022-08-08T14:17:22.450Z,27.10
2022-08-08T14:20:56.609Z,27.00
2022-08-08T14:24:04.441Z,27.00
2022-08-08T14:26:56.488Z,26.90
2022-08-08T14:29:59.659Z,26.80
2022-08-08T14:32:52.740Z,26.80
2022-08-08T14:35:43.153Z,26.90
2022-08-08T14:38:51.853Z,26.90
2022-08-08T14:41:53.095Z,26.70
2022-08-08T14:44:42.968Z,26.80
2022-08-08T14:47:46.006Z,26.90
2022-08-08T14:50:40.084Z,27.20
2022-08-08T14:53:37.269Z,27.10
2022-08-08T14:56:43.503Z,27.00
2022-08-08T14:59:44.444Z,27.00
2022-08-08T15:02:58.556Z,27.00
2022-08-08T15:05:54.224Z,27.10
2022-08-08T15:08:54.829Z,27.10
2022-08-08T15:11:52.991Z,27.00
2022-08-08T15:14:42.421Z,27.10
2022-08-08T15:17:31.200Z,27.20
2022-08-08T15:20:21.356Z,27.40
2022-08-08T15:23:10.099Z,27.50
2022-08-08T15:26:03.588Z,27.30
2022-08-08T15:28:53.946Z,27.10
2022-08-08T15:32:17.949Z,27.00
2022-08-08T15:34:51.879Z,27.00
2022-08-08T15:37:42.153Z,27.00
2022-08-08T15:40:30.998Z,26.90
2022-08-08T15:43:35.959Z,26.80
2022-08-08T15:46:26.101Z,26.70
2022-08-08T15:49:20.630Z,26.60
2022-08-08T15:52:12.946Z,26.50
2022-08-08T15:55:03.397Z,26.40
2022-08-08T15:57:52.165Z,26.40
2022-08-08T16:00:40.921Z,26.20
2022-08-08T16:03:39.052Z,26.20
2022-08-08T16:06:29.186Z,26.10
2022-08-08T16:13:05.465Z,26.10
2022-08-08T16:13:20.913Z,26.10
2022-08-08T16:15:57.403Z,26.10
2022-08-08T16:18:56.620Z,26.10
2022-08-08T16:21:48.985Z,26.10
2022-08-08T16:24:38.009Z,26.10
2022-08-08T16:27:27.085Z,26.00
2022-08-08T16:30:32.591Z,26.00
2022-08-08T16:33:29.771Z,25.90
2022-08-08T16:36:33.832Z,25.90
2022-08-08T16:39:59.898Z,25.90
2022-08-08T16:42:33.106Z,25.80
2022-08-08T16:46:37.262Z,25.80
2022-08-08T16:48:37.580Z,25.70
2022-08-08T16:55:06.255Z,25.70
2022-08-08T16:55:24.226Z,25.60
2022-08-08T16:58:16.180Z,25.70
2022-08-08T17:00:54.565Z,25.60
2022-08-08T17:03:59.309Z,25.60
2022-08-08T17:06:50.079Z,25.60
2022-08-08T17:09:45.234Z,25.50
2022-08-08T17:12:36.567Z,25.50
2022-08-08T17:15:25.821Z,25.50
2022-08-08T17:18:25.062Z,25.40
2022-08-08T17:21:14.051Z,25.40
2022-08-08T17:24:10.531Z,25.30
2022-08-08T17:27:10.975Z,25.30
2022-08-08T17:30:01.645Z,25.20
2022-08-08T17:34:37.652Z,25.10
2022-08-08T17:36:09.998Z,25.10
2022-08-08T17:39:05.486Z,25.10
2022-08-08T17:42:10.132Z,25.00
2022-08-08T17:44:59.474Z,25.00
2022-08-08T17:47:50.773Z,24.90
2022-08-08T17:50:39.888Z,24.90
2022-08-08T17:53:43.394Z,24.80
2022-08-08T17:56:32.927Z,24.80
2022-08-08T17:59:23.514Z,24.70
2022-08-08T18:02:28.743Z,24.60
2022-08-08T18:05:23.226Z,24.60
2022-08-08T18:08:25.388Z,24.50
2022-08-08T18:11:22.359Z,24.40
2022-08-08T18:14:18.911Z,24.30
2022-08-08T18:17:17.292Z,24.20
2022-08-08T18:20:43.508Z,24.10
2022-08-08T18:23:26.253Z,24.00
2022-08-08T18:26:15.252Z,24.00
2022-08-08T18:29:05.909Z,23.80
2022-08-08T18:31:54.817Z,23.70
2022-08-08T18:34:44.548Z,23.60
2022-08-08T18:37:48.579Z,23.40
2022-08-08T18:40:37.519Z,23.20
2022-08-08T18:43:42.507Z,23.10
2022-08-08T18:46:55.823Z,23.00
2022-08-08T18:49:57.784Z,22.90
2022-08-08T18:52:52.510Z,22.80
2022-08-08T18:55:44.117Z,22.80
2022-08-08T18:58:35.522Z,22.70
2022-08-08T19:02:25.506Z,22.70
2022-08-08T19:04:35.594Z,22.70
2022-08-08T19:07:29.952Z,22.60
2022-08-08T19:10:22.361Z,22.60
2022-08-08T19:13:21.439Z,22.50
2022-08-08T19:16:18.478Z,22.50
2022-08-08T19:19:13.182Z,22.50
2022-08-08T19:22:04.769Z,22.50
2022-08-08T19:26:00.141Z,22.40
2022-08-08T19:28:02.345Z,22.10
2022-08-08T19:31:07.266Z,21.90
2022-08-08T19:34:29.578Z,21.60
2022-08-08T19:37:16.177Z,21.40
2022-08-08T19:40:06.633Z,21.30
2022-08-08T19:42:55.708Z,21.10
2022-08-08T19:45:58.182Z,21.10
2022-08-08T19:48:49.290Z,21.00
2022-08-08T19:51:39.591Z,20.90
2022-08-08T19:54:33.565Z,20.70
2022-08-08T19:57:22.244Z,20.60
2022-08-08T20:00:30.355Z,20.60
2022-08-08T20:04:02.163Z,20.50
2022-08-08T20:06:29.315Z,20.50
2022-08-08T20:09:23.017Z,20.30
2022-08-08T20:12:14.074Z,20.20
2022-08-08T20:15:14.881Z,20.20
2022-08-08T20:18:15.397Z,20.20
2022-08-08T20:21:05.073Z,20.20
2022-08-08T20:23:58.201Z,20.10
2022-08-08T20:26:49.390Z,20.00
2022-08-08T20:29:55.624Z,19.80
2022-08-08T20:32:48.444Z,19.70
2022-08-08T20:35:58.345Z,19.60
2022-08-08T20:38:45.848Z,19.70
2022-08-08T20:41:39.063Z,19.70
2022-08-08T20:44:30.218Z,19.60
2022-08-08T20:47:23.773Z,19.60
2022-08-08T20:50:18.726Z,19.50
2022-08-08T20:53:23.496Z,19.50
2022-08-08T20:56:35.823Z,19.40
2022-08-08T20:59:10.610Z,19.30
2022-08-08T21:02:07.394Z,19.30
2022-08-08T21:05:01.723Z,19.50
2022-08-08T21:08:34.418Z,19.50
2022-08-08T21:11:01.463Z,19.60
2022-08-08T21:13:52.395Z,19.70
2022-08-08T21:16:42.089Z,19.80
2022-08-08T21:19:33.909Z,19.70
2022-08-08T21:22:34.918Z,19.80
2022-08-08T21:25:23.777Z,19.80
2022-08-08T21:32:25.062Z,19.60
2022-08-08T21:36:18.311Z,19.50
2022-08-08T21:38:24.706Z,19.40
2022-08-08T21:41:18.423Z,19.40
2022-08-08T21:44:22.437Z,19.40
2022-08-08T21:48:04.177Z,19.30
2022-08-08T21:50:20.060Z,19.30
2022-08-08T21:54:32.313Z,19.30
2022-08-08T21:56:28.208Z,19.20
2022-08-08T21:59:22.930Z,19.20
2022-08-08T22:02:12.276Z,19.10
2022-08-08T22:05:01.268Z,19.10
2022-08-08T22:07:52.680Z,19.10
2022-08-08T22:10:49.041Z,19.10
2022-08-08T22:13:47.798Z,19.10
2022-08-08T22:16:40.392Z,19.10
2022-08-08T22:19:29.804Z,19.10
2022-08-08T22:22:19.567Z,19.00
2022-08-08T22:25:24.947Z,19.00
2022-08-08T22:29:04.794Z,18.90
2022-08-08T22:31:24.737Z,18.90
2022-08-08T22:34:18.280Z,19.00
2022-08-08T22:37:28.126Z,18.90
2022-08-08T22:40:20.204Z,19.00
2022-08-08T22:43:09.046Z,18.90
2022-08-08T22:45:57.784Z,18.80
2022-08-08T22:48:50.385Z,18.90
2022-08-08T22:51:46.255Z,18.90
2022-08-08T22:54:53.888Z,18.80
2022-08-08T22:57:49.358Z,18.90
2022-08-08T23:00:38.469Z,18.80
2022-08-08T23:03:34.423Z,18.80
2022-08-08T23:06:38.594Z,18.70
2022-08-08T23:09:30.658Z,18.80
2022-08-08T23:12:39.578Z,18.70
2022-08-08T23:16:38.912Z,18.70
2022-08-08T23:18:37.784Z,18.70
2022-08-08T23:21:27.904Z,18.70
2022-08-08T23:24:22.228Z,18.70
2022-08-08T23:27:17.223Z,18.60
2022-08-08T23:30:23.793Z,18.60
2022-08-08T23:33:19.464Z,18.60
2022-08-08T23:36:24.278Z,18.60
2022-08-08T23:39:15.663Z,18.60
2022-08-08T23:42:08.825Z,18.60
2022-08-08T23:44:57.576Z,18.60
2022-08-08T23:49:05.979Z,18.60
2022-08-08T23:50:57.298Z,18.50
2022-08-08T23:54:06.348Z,18.50
2022-08-08T23:56:54.976Z,18.50
2022-08-08T23:59:45.833Z,18.40
